Time;durP1;ratioP1;P1;durP2;ratioP2;P2;SDS_P1;SDS_P2;PMS_P1;PMS_P2;Temp;Humidity;BMP_temperature;BMP_pressure;BME280_temperature;BME280_humidity;BME280_pressure;Samples;Min_cycle;Max_cycle;Signal;HPM_P1;HPM_P2
2023/11/01 00:00:06;;;;;;;0.68;0.68;;;;;;;11.67;nan;97941.25;7387935;19;20018;-79
2023/11/01 00:02:38;;;;;;;0.25;0.25;;;;;;;11.64;nan;97931.09;7389046;19;20069;-79
2023/11/01 00:05:04;;;;;;;8.80;1.30;;;;;;;11.76;nan;97935.25;7389315;19;20512;-80
2023/11/01 00:07:30;;;;;;;1.52;0.77;;;;;;;12.05;nan;97930.75;7390652;19;20007;-79
2023/11/01 00:09:56;;;;;;;2.10;0.63;;;;;;;12.16;nan;97919.41;7389040;19;20018;-79
2023/11/01 00:12:22;;;;;;;0.93;0.75;;;;;;;12.60;nan;97918.63;7389644;19;20562;-79
2023/11/01 00:14:48;;;;;;;0.75;0.75;;;;;;;11.98;nan;97915.38;7390281;19;20022;-79
2023/11/01 00:17:14;;;;;;;2.88;1.52;;;;;;;11.76;nan;97915.72;7390543;19;20002;-79
2023/11/01 00:19:41;;;;;;;0.95;0.60;;;;;;;12.61;nan;97908.19;7368500;19;20010;-79
2023/11/01 00:22:07;;;;;;;0.98;0.82;;;;;;;11.85;nan;97904.19;7392563;19;20075;-79
2023/11/01 00:24:33;;;;;;;3.72;1.85;;;;;;;11.97;nan;97902.75;7390111;19;20081;-79
2023/11/01 00:26:59;;;;;;;2.20;0.90;;;;;;;12.09;nan;97883.75;7393030;19;20414;-79
2023/11/01 00:29:25;;;;;;;1.52;0.70;;;;;;;11.69;nan;97882.91;7391654;19;20015;-79
2023/11/01 00:31:52;;;;;;;2.40;1.05;;;;;;;12.12;nan;97877.88;7390075;19;20015;-79
2023/11/01 00:34:18;;;;;;;3.30;0.55;;;;;;;11.79;nan;97874.88;7386479;19;20018;-79
2023/11/01 00:36:44;;;;;;;0.55;0.40;;;;;;;11.77;nan;97872.63;7390142;19;20479;-79
2023/11/01 00:39:10;;;;;;;1.63;0.65;;;;;;;12.05;nan;97864.56;7388517;19;20003;-79
2023/11/01 00:41:36;;;;;;;2.55;1.35;;;;;;;11.89;nan;97860.00;7387927;19;20375;-80
2023/11/01 00:44:02;;;;;;;1.35;1.05;;;;;;;11.81;nan;97856.34;7392587;19;20043;-79
2023/11/01 00:46:28;;;;;;;5.90;0.60;;;;;;;11.97;nan;97849.72;7387312;19;20006;-79
2023/11/01 00:48:55;;;;;;;0.73;0.35;;;;;;;11.72;nan;97842.03;7388644;19;20010;-79
2023/11/01 00:51:21;;;;;;;0.98;0.75;;;;;;;14.56;nan;97827.63;7387553;19;20348;-79
2023/11/01 00:53:47;;;;;;;1.02;0.63;;;;;;;17.13;nan;97825.00;7388621;19;20419;-79
2023/11/01 00:56:13;;;;;;;0.82;0.82;;;;;;;14.06;nan;97811.38;7388843;19;20017;-79
2023/11/01 00:58:39;;;;;;;2.13;1.20;;;;;;;34.12;nan;97776.81;7387456;19;20023;-79
2023/11/01 01:01:05;;;;;;;0.28;0.28;;;;;;;37.72;nan;97766.63;7387509;19;20018;-79
2023/11/01 01:03:31;;;;;;;1.33;0.40;;;;;;;38.58;nan;97763.41;7387754;19;20456;-79
2023/11/01 01:05:57;;;;;;;0.20;0.20;;;;;;;38.83;nan;97746.75;7388576;19;20349;-79
2023/11/01 01:08:24;;;;;;;2.22;0.57;;;;;;;20.60;nan;97775.84;7385750;19;20019;-79
2023/11/01 01:10:50;;;;;;;1.65;0.65;;;;;;;15.23;nan;97783.59;7388004;19;20070;-79
2023/11/01 01:13:16;;;;;;;2.45;1.13;;;;;;;13.95;nan;97772.50;7389845;19;20039;-79
2023/11/01 01:15:42;;;;;;;1.00;0.43;;;;;;;12.81;nan;97765.84;7386920;19;21276;-79
2023/11/01 01:18:08;;;;;;;0.63;0.45;;;;;;;12.25;nan;97775.91;7385675;19;20019;-79
2023/11/01 01:20:34;;;;;;;3.30;0.60;;;;;;;12.28;nan;97767.22;7386313;19;20496;-79
2023/11/01 01:23:00;;;;;;;0.30;0.30;;;;;;;11.89;nan;97756.81;7389038;19;20409;-79
2023/11/01 01:25:27;;;;;;;1.42;0.40;;;;;;;11.99;nan;97759.94;7386785;19;20011;-79
2023/11/01 01:27:53;;;;;;;0.90;0.45;;;;;;;12.01;nan;97760.91;7388286;19;20019;-79
2023/11/01 01:30:19;;;;;;;2.78;0.52;;;;;;;11.73;nan;97743.16;7388115;19;20018;-79
2023/11/01 01:32:45;;;;;;;1.02;0.82;;;;;;;11.68;nan;97736.41;7387976;19;20030;-79
2023/11/01 01:35:12;;;;;;;0.20;0.20;;;;;;;11.86;nan;97729.25;7387247;19;20684;-79
2023/11/01 01:37:39;;;;;;;0.77;0.65;;;;;;;12.12;nan;97724.41;7385848;19;20021;-79
2023/11/01 01:40:05;;;;;;;0.63;0.55;;;;;;;12.64;nan;97706.81;7387702;19;20015;-80
2023/11/01 01:42:32;;;;;;;0.30;0.30;;;;;;;12.58;nan;97708.22;7388381;19;20445;-79
2023/11/01 01:44:58;;;;;;;0.20;0.20;;;;;;;16.74;nan;97693.63;7386923;19;20010;-79
2023/11/01 01:47:24;;;;;;;0.98;0.75;;;;;;;12.98;nan;97690.03;7389165;19;20019;-79
2023/11/01 01:49:52;;;;;;;1.00;0.65;;;;;;;12.33;nan;97681.88;7393508;19;20050;-79
2023/11/01 01:52:21;;;;;;;1.45;0.52;;;;;;;12.24;nan;97685.09;7393508;19;20094;-80
2023/11/01 01:54:48;;;;;;;0.30;0.20;;;;;;;11.77;nan;97683.00;7395503;19;20091;-79
2023/11/01 01:57:22;;;;;;;7.53;0.32;;;;;;;11.88;nan;97666.06;7395840;19;20010;-79
2023/11/01 01:59:48;;;;;;;1.73;0.40;;;;;;;11.91;nan;97670.53;7392425;19;20361;-79
2023/11/01 02:02:15;;;;;;;0.30;0.20;;;;;;;11.71;nan;97668.44;7393442;19;20010;-79
2023/11/01 02:04:41;;;;;;;0.68;0.30;;;;;;;11.67;nan;97651.28;7394081;19;20410;-79
2023/11/01 02:07:09;;;;;;;0.45;0.38;;;;;;;11.90;nan;97646.00;7374874;19;20007;-79
2023/11/01 02:09:36;;;;;;;3.20;0.30;;;;;;;11.78;nan;97644.72;7391580;19;20014;-79
2023/11/01 02:12:02;;;;;;;0.52;0.22;;;;;;;11.81;nan;97638.81;7393376;19;20014;-79
2023/11/01 02:14:28;;;;;;;0.75;0.63;;;;;;;12.13;nan;97636.63;7392886;19;20039;-80
2023/11/01 02:16:54;;;;;;;1.48;0.40;;;;;;;12.49;nan;97624.94;7392702;19;20014;-79
2023/11/01 02:19:22;;;;;;;0.10;0.10;;;;;;;25.44;nan;97598.13;7392851;19;20010;-79
2023/11/01 02:21:48;;;;;;;0.20;0.00;;;;;;;30.79;nan;97582.09;7394937;19;20018;-79
2023/11/01 02:24:14;;;;;;;0.10;0.00;;;;;;;14.23;nan;97590.53;7392260;19;20014;-79
2023/11/01 02:26:40;;;;;;;0.10;0.10;;;;;;;34.21;nan;97561.72;7393627;19;20014;-79
2023/11/01 02:29:07;;;;;;;0.08;0.08;;;;;;;39.11;nan;97542.91;7392448;19;20013;-79
2023/11/01 02:31:33;;;;;;;0.95;0.55;;;;;;;40.29;nan;97537.94;7393230;19;20015;-79
2023/11/01 02:33:59;;;;;;;3.60;0.70;;;;;;;40.62;nan;97526.72;7393767;19;20010;-79
2023/11/01 02:36:25;;;;;;;0.57;0.35;;;;;;;35.24;nan;97534.34;7393579;19;20035;-79
2023/11/01 02:38:52;;;;;;;0.43;0.25;;;;;;;40.95;nan;97510.38;7393391;19;20006;-79
2023/11/01 02:41:18;;;;;;;0.10;0.00;;;;;;;41.67;nan;97500.00;7390809;19;20010;-79
2023/11/01 02:43:44;;;;;;;0.35;0.35;;;;;;;41.99;nan;97487.06;7391951;19;20358;-79
2023/11/01 02:46:11;;;;;;;0.15;0.15;;;;;;;42.26;nan;97488.09;7391341;19;20074;-78
2023/11/01 02:48:37;;;;;;;0.75;0.28;;;;;;;42.80;nan;97481.28;7389000;19;20018;-79
2023/11/01 02:51:03;;;;;;;0.10;0.10;;;;;;;42.43;nan;97468.09;7393554;19;20002;-78
2023/11/01 02:53:29;;;;;;;0.50;0.28;;;;;;;42.29;nan;97469.03;7393357;19;20078;-79
2023/11/01 02:55:55;;;;;;;0.52;0.52;;;;;;;40.79;nan;97463.78;7394762;19;20371;-78
2023/11/01 02:58:23;;;;;;;0.10;0.10;;;;;;;39.92;nan;97461.66;7390638;19;20010;-79
2023/11/01 03:00:50;;;;;;;0.10;0.00;;;;;;;40.26;nan;97451.19;7392265;19;20013;-79
2023/11/01 03:03:16;;;;;;;1.27;0.38;;;;;;;20.89;nan;97479.47;7391737;19;20021;-79
2023/11/01 03:05:42;;;;;;;0.00;0.00;;;;;;;17.62;nan;97470.47;7390919;19;20006;-79
2023/11/01 03:08:08;;;;;;;0.35;0.22;;;;;;;17.27;nan;97463.34;7391484;19;20013;-79
2023/11/01 03:10:34;;;;;;;0.17;0.10;;;;;;;13.07;nan;97460.44;7391038;19;20039;-79
2023/11/01 03:13:01;;;;;;;0.22;0.20;;;;;;;11.95;nan;97453.41;7392458;19;20017;-79
2023/11/01 03:15:27;;;;;;;0.20;0.10;;;;;;;15.14;nan;97451.25;7390163;19;20480;-78
2023/11/01 03:17:53;;;;;;;0.20;0.20;;;;;;;12.90;nan;97438.56;7391154;19;20090;-79
2023/11/01 03:20:19;;;;;;;0.10;0.10;;;;;;;12.82;nan;97432.16;7391543;19;20357;-79
2023/11/01 03:22:45;;;;;;;0.10;0.10;;;;;;;12.42;nan;97430.19;7391912;19;20010;-79
2023/11/01 03:25:11;;;;;;;0.20;0.20;;;;;;;12.03;nan;97420.78;7390775;19;20039;-79
2023/11/01 03:27:37;;;;;;;0.10;0.00;;;;;;;11.98;nan;97413.28;7391097;19;20082;-79
2023/11/01 03:30:04;;;;;;;0.25;0.25;;;;;;;12.01;nan;97403.84;7391319;19;20006;-79
2023/11/01 03:32:30;;;;;;;0.10;0.10;;;;;;;12.07;nan;97404.44;7390525;19;20022;-79
2023/11/01 03:34:56;;;;;;;0.20;0.20;;;;;;;11.90;nan;97395.75;7391008;19;20007;-78
2023/11/01 03:37:22;;;;;;;0.20;0.20;;;;;;;11.95;nan;97389.25;7391452;19;20524;-79
2023/11/01 03:39:48;;;;;;;0.17;0.10;;;;;;;12.77;nan;97368.06;7391678;19;20015;-79
2023/11/01 03:42:15;;;;;;;1.38;0.73;;;;;;;12.17;nan;97371.97;7388882;19;20010;-79
2023/11/01 03:44:42;;;;;;;0.10;0.10;;;;;;;11.98;nan;97365.88;7389735;19;20028;-79
2023/11/01 03:47:09;;;;;;;0.10;0.00;;;;;;;11.99;nan;97361.78;7390308;19;20015;-79
2023/11/01 03:49:35;;;;;;;0.20;0.20;;;;;;;12.02;nan;97369.06;7388600;19;20013;-79
2023/11/01 03:52:02;;;;;;;0.25;0.25;;;;;;;12.00;nan;97362.53;7392272;19;20006;-79
2023/11/01 03:54:29;;;;;;;0.10;0.10;;;;;;;12.22;nan;97353.59;7389921;19;20218;-79
2023/11/01 03:56:55;;;;;;;0.52;0.20;;;;;;;12.17;nan;97346.13;7391343;19;20014;-79
2023/11/01 03:59:22;;;;;;;0.00;0.00;;;;;;;12.17;nan;97346.84;7387942;19;20015;-79
2023/11/01 04:01:48;;;;;;;0.10;0.03;;;;;;;12.20;nan;97342.22;7392008;19;20023;-79
2023/11/01 04:04:14;;;;;;;0.98;0.20;;;;;;;12.18;nan;97348.38;7391855;19;20070;-79
2023/11/01 04:06:40;;;;;;;2.03;0.25;;;;;;;12.13;nan;97335.28;7390851;19;20002;-79
2023/11/01 04:09:06;;;;;;;0.10;0.10;;;;;;;12.22;nan;97320.09;7389186;19;20019;-79
2023/11/01 04:11:33;;;;;;;0.20;0.20;;;;;;;12.22;nan;97336.84;7388744;19;20031;-79
2023/11/01 04:13:59;;;;;;;0.20;0.20;;;;;;;12.98;nan;97320.50;7389876;19;20432;-79
2023/11/01 04:16:26;;;;;;;0.20;0.20;;;;;;;13.07;nan;97311.59;7389958;19;20357;-79
2023/11/01 04:18:52;;;;;;;0.47;0.10;;;;;;;14.57;nan;97294.13;7388748;19;20007;-79
2023/11/01 04:21:18;;;;;;;0.10;0.10;;;;;;;15.78;nan;97287.91;7387054;19;20426;-78
2023/11/01 04:23:44;;;;;;;0.50;0.22;;;;;;;14.02;nan;97290.47;7391009;19;20015;-78
2023/11/01 04:26:10;;;;;;;0.30;0.30;;;;;;;12.78;nan;97294.16;7390597;19;20018;-78
2023/11/01 04:28:36;;;;;;;0.08;0.00;;;;;;;12.71;nan;97287.22;7388492;19;20488;-79
2023/11/01 04:31:03;;;;;;;0.40;0.20;;;;;;;13.02;nan;97282.50;7391404;19;20342;-79
2023/11/01 04:33:31;;;;;;;0.10;0.10;;;;;;;12.60;nan;97287.59;7389079;19;20018;-78
2023/11/01 04:35:58;;;;;;;0.20;0.20;;;;;;;12.51;nan;97276.19;7391816;19;20058;-78
2023/11/01 04:38:24;;;;;;;0.20;0.20;;;;;;;12.52;nan;97269.28;7389034;19;20429;-78
2023/11/01 04:40:50;;;;;;;0.20;0.20;;;;;;;12.81;nan;97256.75;7387725;19;20082;-79
2023/11/01 04:43:17;;;;;;;0.20;0.10;;;;;;;13.07;nan;97245.31;7390175;19;20018;-79
2023/11/01 04:45:45;;;;;;;0.20;0.10;;;;;;;13.18;nan;97239.38;7389382;19;20010;-79
2023/11/01 04:48:11;;;;;;;0.65;0.65;;;;;;;13.15;nan;97232.09;7387913;19;20013;-79
2023/11/01 04:50:37;;;;;;;0.00;0.00;;;;;;;12.77;nan;97226.41;7387559;19;20019;-78
2023/11/01 04:53:04;;;;;;;1.05;0.10;;;;;;;12.74;nan;97212.78;7388574;19;20018;-79
2023/11/01 04:55:30;;;;;;;0.40;0.32;;;;;;;12.69;nan;97211.66;7388787;19;20022;-79
2023/11/01 04:57:56;;;;;;;0.32;0.32;;;;;;;12.71;nan;97197.16;7387851;19;20018;-78
2023/11/01 05:00:22;;;;;;;0.10;0.00;;;;;;;12.90;nan;97197.56;7386085;19;20019;-79
2023/11/01 05:02:48;;;;;;;0.32;0.30;;;;;;;12.95;nan;97182.66;7389034;19;20070;-78
2023/11/01 05:05:14;;;;;;;0.20;0.10;;;;;;;14.24;nan;97177.72;7388185;19;20457;-79
2023/11/01 05:07:41;;;;;;;0.47;0.30;;;;;;;13.40;nan;97171.56;7386979;19;20014;-79
2023/11/01 05:10:08;;;;;;;0.10;0.10;;;;;;;13.39;nan;97181.25;7389410;19;20017;-79
2023/11/01 05:12:34;;;;;;;4.68;0.20;;;;;;;13.53;nan;97165.78;7387292;19;20010;-78
2023/11/01 05:15:00;;;;;;;0.05;0.05;;;;;;;14.49;nan;97147.03;7388243;19;20028;-78
2023/11/01 05:17:27;;;;;;;4.20;0.95;;;;;;;13.37;nan;97161.50;7387706;19;20027;-79
2023/11/01 05:19:53;;;;;;;0.03;0.03;;;;;;;13.82;nan;97148.75;7388937;19;20013;-79
2023/11/01 05:22:19;;;;;;;0.32;0.20;;;;;;;13.21;nan;97153.69;7392068;19;20005;-78
2023/11/01 05:24:51;;;;;;;0.20;0.20;;;;;;;13.44;nan;97143.97;7395362;19;19998;-79
2023/11/01 05:27:19;;;;;;;0.10;0.00;;;;;;;13.43;nan;97142.47;7395454;19;20018;-78
2023/11/01 05:29:46;;;;;;;0.30;0.30;;;;;;;13.45;nan;97128.66;7392980;19;20010;-79
2023/11/01 05:32:12;;;;;;;0.20;0.20;;;;;;;13.69;nan;97135.72;7396596;19;20464;-79
2023/11/01 05:34:39;;;;;;;0.45;0.45;;;;;;;13.19;nan;97123.47;7394565;19;20023;-79
2023/11/01 05:37:09;;;;;;;0.13;0.13;;;;;;;13.08;nan;97118.25;7394369;19;20469;-79
2023/11/01 05:39:35;;;;;;;0.30;0.28;;;;;;;13.09;nan;97114.16;7394434;19;20019;-79
2023/11/01 05:42:01;;;;;;;0.22;0.20;;;;;;;14.18;nan;97101.63;7393838;19;20006;-79
2023/11/01 05:44:27;;;;;;;0.75;0.30;;;;;;;13.31;nan;97096.66;7393801;19;20017;-79
2023/11/01 05:46:53;;;;;;;0.00;0.00;;;;;;;13.15;nan;97083.22;7393253;19;20019;-79
2023/11/01 05:49:20;;;;;;;1.10;0.20;;;;;;;13.11;nan;97078.03;7392683;19;20070;-79
2023/11/01 05:51:46;;;;;;;3.13;0.38;;;;;;;13.14;nan;97071.34;7395610;19;20006;-79
2023/11/01 05:54:12;;;;;;;2.78;0.32;;;;;;;13.19;nan;97067.59;7394076;19;20018;-79
2023/11/01 05:56:40;;;;;;;0.10;0.00;;;;;;;13.18;nan;97054.19;7394057;19;20040;-78
2023/11/01 05:59:06;;;;;;;0.43;0.10;;;;;;;13.22;nan;97043.38;7393062;19;20441;-79
2023/11/01 06:01:32;;;;;;;0.17;0.17;;;;;;;13.62;nan;97038.63;7394167;19;20552;-78
2023/11/01 06:04:00;;;;;;;0.63;0.47;;;;;;;14.13;nan;97027.75;7396342;19;20587;-78
2023/11/01 06:06:26;;;;;;;0.40;0.20;;;;;;;13.35;nan;97018.75;7394422;19;20015;-78
2023/11/01 06:08:52;;;;;;;0.20;0.17;;;;;;;14.09;nan;97018.25;7393863;19;20026;-78
2023/11/01 06:11:19;;;;;;;0.00;0.00;;;;;;;13.34;nan;97006.06;7394168;19;20011;-78
2023/11/01 06:13:46;;;;;;;0.00;0.00;;;;;;;13.24;nan;97007.97;7393036;19;20483;-79
2023/11/01 06:16:12;;;;;;;0.13;0.10;;;;;;;13.56;nan;96993.31;7394562;19;20014;-78
2023/11/01 06:18:38;;;;;;;0.00;0.00;;;;;;;13.37;nan;96993.78;7393028;19;20014;-78
2023/11/01 06:21:08;;;;;;;0.20;0.20;;;;;;;13.53;nan;96994.47;7394016;19;20019;-78
2023/11/01 06:23:37;;;;;;;0.00;0.00;;;;;;;13.41;nan;97005.31;7391570;19;20023;-79
2023/11/01 06:26:04;;;;;;;0.15;0.05;;;;;;;13.58;nan;96997.03;7392437;19;20003;-79
2023/11/01 06:28:30;;;;;;;0.10;0.00;;;;;;;13.35;nan;96996.38;7394624;19;20491;-78
2023/11/01 06:30:56;;;;;;;0.10;0.10;;;;;;;13.41;nan;96987.78;7395237;19;20546;-78
2023/11/01 06:33:23;;;;;;;1.75;0.43;;;;;;;13.61;nan;96987.53;7390396;19;20073;-79
2023/11/01 06:35:49;;;;;;;0.13;0.08;;;;;;;13.61;nan;96989.59;7392918;19;20341;-79
2023/11/01 06:38:15;;;;;;;0.80;0.25;;;;;;;14.33;nan;96984.75;7393205;19;20339;-79
2023/11/01 06:40:41;;;;;;;0.10;0.10;;;;;;;13.79;nan;96976.44;7392242;19;20007;-79
2023/11/01 06:43:08;;;;;;;0.10;0.10;;;;;;;13.64;nan;96985.66;7393854;19;20062;-79
2023/11/01 06:45:35;;;;;;;0.00;0.00;;;;;;;13.66;nan;96977.44;7388860;19;20484;-78
2023/11/01 06:48:02;;;;;;;0.00;0.00;;;;;;;13.74;nan;96983.00;7388474;19;20002;-79
2023/11/01 06:50:28;;;;;;;0.17;0.17;;;;;;;13.83;nan;96993.59;7388520;19;20017;-79
2023/11/01 06:52:55;;;;;;;0.10;0.00;;;;;;;13.73;nan;96993.44;7389566;19;20007;-79
2023/11/01 06:55:21;;;;;;;0.00;0.00;;;;;;;14.09;nan;97015.47;7387840;19;20046;-80
2023/11/01 06:57:47;;;;;;;0.32;0.10;;;;;;;14.54;nan;97037.59;7385995;19;20014;-79
2023/11/01 07:00:14;;;;;;;0.13;0.13;;;;;;;13.67;nan;97027.22;7387666;19;20014;-79
2023/11/01 07:02:40;;;;;;;0.30;0.10;;;;;;;14.73;nan;97021.00;7388284;19;20038;-79
2023/11/01 07:05:06;;;;;;;0.20;0.10;;;;;;;13.74;nan;97014.50;7389211;19;20011;-79
2023/11/01 07:07:33;;;;;;;0.35;0.25;;;;;;;13.48;nan;97012.94;7389207;19;20015;-79
2023/11/01 07:09:59;;;;;;;0.00;0.00;;;;;;;13.45;nan;97024.47;7391639;19;20014;-79
2023/11/01 07:12:26;;;;;;;0.00;0.00;;;;;;;13.32;nan;97019.13;7390221;19;20408;-79
2023/11/01 07:14:52;;;;;;;0.00;0.00;;;;;;;13.90;nan;97015.19;7393345;19;20014;-78
2023/11/01 07:17:18;;;;;;;0.00;0.00;;;;;;;13.35;nan;97018.75;7391859;19;20534;-79
2023/11/01 07:19:44;;;;;;;3.55;0.40;;;;;;;13.73;nan;97023.47;7391833;19;20010;-78
2023/11/01 07:22:11;;;;;;;0.00;0.00;;;;;;;13.81;nan;97013.00;7392216;19;20456;-79
2023/11/01 07:24:37;;;;;;;0.65;0.30;;;;;;;13.16;nan;97012.84;7392130;19;20029;-79
2023/11/01 07:27:03;;;;;;;0.43;0.10;;;;;;;13.23;nan;97017.66;7391050;19;20469;-78
2023/11/01 07:29:29;;;;;;;0.10;0.00;;;;;;;13.30;nan;97011.28;7389947;19;20003;-79
2023/11/01 07:31:55;;;;;;;0.00;0.00;;;;;;;13.52;nan;97016.09;7392885;19;20064;-79
2023/11/01 07:34:22;;;;;;;0.25;0.15;;;;;;;13.59;nan;97023.72;7388785;19;20015;-78
2023/11/01 07:36:48;;;;;;;0.10;0.00;;;;;;;13.97;nan;97031.22;7392306;19;20006;-79
2023/11/01 07:39:14;;;;;;;0.00;0.00;;;;;;;14.49;nan;97013.34;7390971;19;20034;-79
2023/11/01 07:41:40;;;;;;;0.00;0.00;;;;;;;13.57;nan;97020.72;7390037;19;20018;-80
2023/11/01 07:44:06;;;;;;;0.00;0.00;;;;;;;13.37;nan;97032.91;7386799;19;20017;-80
2023/11/01 07:46:32;;;;;;;0.10;0.10;;;;;;;13.35;nan;97027.13;7390244;19;20015;-80
2023/11/01 07:48:58;;;;;;;0.00;0.00;;;;;;;13.73;nan;97029.06;7391888;19;20033;-80
2023/11/01 07:51:24;;;;;;;0.00;0.00;;;;;;;13.68;nan;97025.91;7389840;19;20040;-82
2023/11/01 07:53:51;;;;;;;0.00;0.00;;;;;;;13.66;nan;97025.72;7390817;19;20010;-81
2023/11/01 07:56:17;;;;;;;0.10;0.10;;;;;;;13.53;nan;97016.84;7388665;19;20002;-81
2023/11/01 07:58:43;;;;;;;0.10;0.10;;;;;;;13.74;nan;97019.34;7390389;19;20006;-81
2023/11/01 08:01:09;;;;;;;0.15;0.15;;;;;;;13.66;nan;97008.94;7390899;19;20010;-81
2023/11/01 08:03:36;;;;;;;0.10;0.00;;;;;;;13.78;nan;97014.13;7389120;19;20017;-82
2023/11/01 08:06:03;;;;;;;0.00;0.00;;;;;;;14.80;nan;97003.41;7389421;19;20029;-81
2023/11/01 08:08:29;;;;;;;0.00;0.00;;;;;;;13.46;nan;97006.41;7388485;19;20327;-81
2023/11/01 08:10:55;;;;;;;0.22;0.20;;;;;;;13.27;nan;97008.91;7389024;19;20354;-81
2023/11/01 08:13:22;;;;;;;0.00;0.00;;;;;;;13.21;nan;97011.88;7389244;19;20014;-81
2023/11/01 08:15:49;;;;;;;0.00;0.00;;;;;;;13.75;nan;97009.66;7391243;19;20485;-81
2023/11/01 08:18:15;;;;;;;0.00;0.00;;;;;;;13.45;nan;97011.25;7390113;19;20015;-81
2023/11/01 08:20:42;;;;;;;0.00;0.00;;;;;;;13.65;nan;97020.69;7390261;19;20018;-81
2023/11/01 08:23:08;;;;;;;0.10;0.10;;;;;;;13.73;nan;97006.69;7391313;19;20010;-81
2023/11/01 08:25:34;;;;;;;0.00;0.00;;;;;;;13.53;nan;97017.59;7389404;19;20030;-82
2023/11/01 08:28:00;;;;;;;0.10;0.00;;;;;;;15.74;nan;97006.97;7391809;19;20011;-81
2023/11/01 08:30:26;;;;;;;0.10;0.00;;;;;;;15.25;nan;97007.09;7390707;19;20070;-81
2023/11/01 08:32:52;;;;;;;0.00;0.00;;;;;;;14.73;nan;97011.88;7390628;19;20492;-81
2023/11/01 08:35:18;;;;;;;0.15;0.15;;;;;;;13.60;nan;97014.00;7391178;19;20090;-81
2023/11/01 08:37:45;;;;;;;0.00;0.00;;;;;;;14.16;nan;97009.09;7392123;19;20018;-80
2023/11/01 08:40:11;;;;;;;0.00;0.00;;;;;;;12.28;nan;97021.38;7389345;19;20018;-81
2023/11/01 08:42:38;;;;;;;0.05;0.00;;;;;;;13.31;nan;97000.88;7389863;19;20026;-81
2023/11/01 08:45:06;;;;;;;0.10;0.00;;;;;;;12.09;nan;97008.50;7388503;19;20390;-81
2023/11/01 08:47:41;;;;;;;0.00;0.00;;;;;;;12.67;nan;96996.47;7388302;19;20435;-81
2023/11/01 08:50:12;;;;;;;0.08;0.00;;;;;;;11.87;nan;97016.81;7390059;19;20002;-81
2023/11/01 08:52:39;;;;;;;0.10;0.00;;;;;;;11.67;nan;97010.06;7387899;19;20082;-81
2023/11/01 08:55:13;;;;;;;5.10;0.68;;;;;;;11.52;nan;97015.53;7388070;19;20027;-81
2023/11/01 08:57:39;;;;;;;0.00;0.00;;;;;;;11.49;nan;97022.22;7389258;19;20070;-81
2023/11/01 09:00:07;;;;;;;0.10;0.00;;;;;;;16.30;nan;97017.06;7389152;19;20007;-81
2023/11/01 09:02:33;;;;;;;0.00;0.00;;;;;;;14.66;nan;97007.09;7388307;19;20010;-80
2023/11/01 09:04:59;;;;;;;0.00;0.00;;;;;;;12.29;nan;97014.50;7387007;19;20016;-82
2023/11/01 09:07:25;;;;;;;0.10;0.10;;;;;;;13.83;nan;97005.53;7386249;19;20013;-82
2023/11/01 09:09:53;;;;;;;0.00;0.00;;;;;;;19.99;nan;96990.69;7388972;19;20455;-81
2023/11/01 09:12:20;;;;;;;0.00;0.00;;;;;;;13.12;nan;97001.28;7386653;19;20040;-82
2023/11/01 09:14:46;;;;;;;0.00;0.00;;;;;;;12.29;nan;97006.13;7388516;19;20494;-82
2023/11/01 09:17:13;;;;;;;0.10;0.10;;;;;;;12.64;nan;97008.00;7387483;19;20590;-82
2023/11/01 09:19:40;;;;;;;2.22;0.55;;;;;;;12.88;nan;96990.69;7387764;19;20723;-82
2023/11/01 09:22:11;;;;;;;0.00;0.00;;;;;;;26.93;nan;96971.38;7386680;19;20015;-83
2023/11/01 09:24:37;;;;;;;0.47;0.47;;;;;;;37.66;nan;96952.34;7388176;19;20022;-82
2023/11/01 09:27:04;;;;;;;0.00;0.00;;;;;;;38.91;nan;96942.56;7389404;19;20358;-82
2023/11/01 09:29:30;;;;;;;0.10;0.10;;;;;;;40.59;nan;96942.28;7387671;19;20116;-82
2023/11/01 09:31:56;;;;;;;0.00;0.00;;;;;;;41.53;nan;96933.13;7390541;19;20011;-83
2023/11/01 09:34:25;;;;;;;0.08;0.00;;;;;;;42.18;nan;96938.19;7387763;19;20076;-82
2023/11/01 09:36:51;;;;;;;0.30;0.30;;;;;;;39.36;nan;96931.81;7386816;19;20007;-83
2023/11/01 09:39:18;;;;;;;0.00;0.00;;;;;;;30.76;nan;96936.78;7385057;19;20022;-82
2023/11/01 09:41:50;;;;;;;0.00;0.00;;;;;;;21.14;nan;96950.50;7386100;19;20006;-82
2023/11/01 09:44:17;;;;;;;0.08;0.00;;;;;;;15.28;nan;96949.88;7387649;19;20011;-82
2023/11/01 09:46:45;;;;;;;0.00;0.00;;;;;;;13.95;nan;96949.88;7384935;19;20488;-83
2023/11/01 09:49:12;;;;;;;0.00;0.00;;;;;;;13.42;nan;96955.75;7386248;19;20048;-82
2023/11/01 09:51:38;;;;;;;0.10;0.00;;;;;;;13.21;nan;96949.66;7385817;19;20564;-83
2023/11/01 09:54:09;;;;;;;0.10;0.10;;;;;;;12.89;nan;96947.47;7388303;19;20038;-83
2023/11/01 09:56:46;;;;;;;0.10;0.10;;;;;;;12.73;nan;96955.13;7387149;19;20021;-82
2023/11/01 09:59:13;;;;;;;0.00;0.00;;;;;;;12.64;nan;96952.19;7387611;19;20003;-82
2023/11/01 10:01:40;;;;;;;0.13;0.00;;;;;;;12.56;nan;96943.06;7387230;19;20003;-83
2023/11/01 10:04:07;;;;;;;0.00;0.00;;;;;;;12.52;nan;96948.25;7385768;19;20391;-82
2023/11/01 10:06:38;;;;;;;0.45;0.45;;;;;;;12.47;nan;96949.22;7387560;19;20022;-82
2023/11/01 10:09:04;;;;;;;;;;;;;;;12.44;nan;96944.72;7392592;19;20002;-82
2023/11/01 10:11:31;;;;;;;0.10;0.10;;;;;;;12.46;nan;96945.66;7392713;19;19918;-82
2023/11/01 10:13:59;;;;;;;0.20;0.20;;;;;;;12.45;nan;96946.22;7394640;19;20467;-83
2023/11/01 10:16:25;;;;;;;0.47;0.47;;;;;;;12.41;nan;96945.88;7393841;19;20010;-81
2023/11/01 10:18:52;;;;;;;0.17;0.03;;;;;;;12.32;nan;96936.00;7391444;19;20015;-82
2023/11/01 10:21:18;;;;;;;0.17;0.17;;;;;;;12.35;nan;96929.28;7393003;19;20010;-82
2023/11/01 10:23:44;;;;;;;0.75;0.75;;;;;;;12.47;nan;96915.72;7395998;19;20017;-81
2023/11/01 10:26:10;;;;;;;0.90;0.50;;;;;;;12.48;nan;96908.81;7392719;19;20024;-81
2023/11/01 10:28:41;;;;;;;0.08;0.08;;;;;;;12.46;nan;96914.22;7391404;19;20003;-81
2023/11/01 10:31:07;;;;;;;0.00;0.00;;;;;;;12.48;nan;96900.44;7394330;19;20014;-81
2023/11/01 10:33:34;;;;;;;0.57;0.57;;;;;;;12.50;nan;96897.84;7393035;19;20017;-82
2023/11/01 10:36:03;;;;;;;0.43;0.13;;;;;;;12.55;nan;96896.91;7392627;19;20006;-82
2023/11/01 10:38:31;;;;;;;0.17;0.17;;;;;;;12.53;nan;96897.47;7391786;19;20031;-81
2023/11/01 10:40:59;;;;;;;0.82;0.47;;;;;;;12.55;nan;96906.03;7393098;19;20034;-81
2023/11/01 10:43:29;;;;;;;0.00;0.00;;;;;;;12.67;nan;96906.38;7393470;19;20447;-81
2023/11/01 10:45:57;;;;;;;1.85;0.52;;;;;;;12.85;nan;96899.63;7392775;19;20018;-82
2023/11/01 10:48:25;;;;;;;0.73;0.20;;;;;;;12.79;nan;96896.31;7390070;19;20024;-82
2023/11/01 10:50:52;;;;;;;0.35;0.10;;;;;;;12.92;nan;96896.09;7394285;19;20026;-82
2023/11/01 10:53:23;;;;;;;0.10;0.10;;;;;;;12.94;nan;96896.25;7394404;19;20009;-81
2023/11/01 10:55:57;;;;;;;1.90;0.38;;;;;;;12.95;nan;96903.31;7394891;19;20013;-82
2023/11/01 10:58:27;;;;;;;0.30;0.30;;;;;;;13.11;nan;96884.50;7391062;19;20011;-85
2023/11/01 11:01:16;;;;;;;0.20;0.10;;;;;;;13.34;nan;96885.16;7393990;19;20468;-81
2023/11/01 11:04:02;;;;;;;0.00;0.00;;;;;;;13.46;nan;96881.34;7393686;19;20010;-81
2023/11/01 11:07:00;;;;;;;0.30;0.30;;;;;;;13.17;nan;96869.00;7390580;19;20011;-81
2023/11/01 11:09:27;;;;;;;4.57;0.38;;;;;;;16.08;nan;96860.91;7389799;19;20370;-81
2023/11/01 11:12:16;;;;;;;0.82;0.17;;;;;;;13.57;nan;96866.19;7393833;19;20039;-82
2023/11/01 11:14:46;;;;;;;0.52;0.25;;;;;;;13.44;nan;96870.00;7391941;19;20044;-81
2023/11/01 11:17:15;;;;;;;0.10;0.00;;;;;;;13.50;nan;96867.72;7391889;19;20015;-81
2023/11/01 11:20:06;;;;;;;0.10;0.10;;;;;;;13.45;nan;96865.88;7389354;19;20062;-82
2023/11/01 11:23:02;;;;;;;0.25;0.25;;;;;;;13.40;nan;96858.47;7393316;19;20026;-81
2023/11/01 11:25:38;;;;;;;0.52;0.50;;;;;;;13.40;nan;96858.47;7392190;19;20011;-81
2023/11/01 11:28:05;;;;;;;2.75;0.95;;;;;;;13.50;nan;96850.94;7390976;19;20457;-81
2023/11/01 11:31:03;;;;;;;0.28;0.28;;;;;;;13.57;nan;96844.59;7391316;19;20007;-81
2023/11/01 11:33:33;;;;;;;0.40;0.40;;;;;;;13.36;nan;96846.19;7390179;19;20588;-81
2023/11/01 11:36:18;;;;;;;0.10;0.00;;;;;;;13.37;nan;96836.50;7392128;19;20031;-81
2023/11/01 11:38:58;;;;;;;0.10;0.00;;;;;;;13.50;nan;96834.19;7388938;19;20014;-81
2023/11/01 11:41:37;;;;;;;0.10;0.10;;;;;;;13.54;nan;96825.38;7389526;19;20461;-81
2023/11/01 11:44:14;;;;;;;0.20;0.20;;;;;;;13.50;nan;96844.63;7392670;19;20011;-82
2023/11/01 11:46:47;;;;;;;4.20;0.77;;;;;;;13.46;nan;96827.50;7391278;19;20476;-81
2023/11/01 11:49:37;;;;;;;1.65;0.75;;;;;;;13.23;nan;96833.19;7389393;19;20115;-81
2023/11/01 11:52:11;;;;;;;0.90;0.20;;;;;;;13.15;nan;96837.34;7390565;19;20353;-81